createdAt,value
2023-02-20T00:01:59.492Z,8.18
2023-02-20T00:04:26.620Z,6.00
2023-02-20T00:06:54.070Z,3.75
2023-02-20T00:09:21.230Z,8.85
2023-02-20T00:11:48.610Z,9.02
2023-02-20T00:14:15.936Z,6.97
2023-02-20T00:16:47.586Z,7.55
2023-02-20T00:19:14.745Z,7.05
2023-02-20T00:21:47.557Z,8.88
2023-02-20T00:24:15.678Z,9.15
2023-02-20T00:26:48.713Z,8.73
2023-02-20T00:29:21.251Z,6.00
2023-02-20T00:31:55.641Z,8.77
2023-02-20T00:34:24.919Z,5.05
2023-02-20T00:36:52.776Z,8.75
2023-02-20T00:39:20.555Z,8.10
2023-02-20T00:41:49.000Z,5.13
2023-02-20T00:44:16.892Z,6.53
2023-02-20T00:46:44.467Z,5.90
2023-02-20T00:49:12.900Z,8.93
2023-02-20T00:51:46.839Z,7.25
2023-02-20T00:54:14.466Z,6.82
2023-02-20T00:56:41.876Z,6.13
2023-02-20T00:59:08.983Z,5.95
2023-02-20T01:01:36.423Z,7.80
2023-02-20T01:04:03.584Z,5.82
2023-02-20T01:06:31.034Z,5.03
2023-02-20T01:08:58.113Z,6.30
2023-02-20T01:11:25.638Z,5.55
2023-02-20T01:13:53.217Z,2.85
2023-02-20T01:16:20.726Z,4.03
2023-02-20T01:18:51.990Z,5.45
2023-02-20T01:21:20.079Z,6.75
2023-02-20T01:23:48.969Z,7.85
2023-02-20T01:26:16.500Z,5.75
2023-02-20T01:28:49.708Z,7.25
2023-02-20T01:31:17.904Z,9.07
2023-02-20T01:33:45.077Z,4.25
2023-02-20T01:36:13.069Z,8.20
2023-02-20T01:38:41.692Z,7.82
2023-02-20T01:41:11.000Z,6.35
2023-02-20T01:43:38.599Z,5.05
2023-02-20T01:46:42.912Z,5.00
2023-02-20T01:49:17.572Z,6.15
2023-02-20T01:51:51.821Z,4.63
2023-02-20T01:54:23.374Z,4.78
2023-02-20T01:56:53.330Z,9.88
2023-02-20T01:59:23.485Z,6.85
2023-02-20T02:01:51.496Z,6.05
2023-02-20T02:04:19.493Z,9.15
2023-02-20T02:06:53.589Z,3.95
2023-02-20T02:09:42.691Z,5.82
2023-02-20T02:12:10.238Z,8.32
2023-02-20T02:14:37.287Z,6.63
2023-02-20T02:17:25.948Z,5.68
2023-02-20T02:20:11.426Z,8.73
2023-02-20T02:23:00.735Z,5.18
2023-02-20T02:25:57.790Z,5.07
2023-02-20T02:28:46.026Z,5.30
2023-02-20T02:31:31.926Z,7.85
2023-02-20T02:34:10.542Z,4.13
2023-02-20T02:36:46.847Z,4.05
2023-02-20T02:39:49.807Z,9.65
2023-02-20T02:42:29.726Z,5.65
2023-02-20T02:45:08.700Z,6.60
2023-02-20T02:47:46.282Z,5.32
2023-02-20T02:50:21.188Z,6.50
2023-02-20T02:52:49.938Z,6.63
2023-02-20T02:55:29.112Z,7.47
2023-02-20T02:57:56.718Z,12.00
2023-02-20T03:00:24.009Z,5.13
2023-02-20T03:02:55.646Z,7.70
2023-02-20T03:05:27.149Z,10.88
2023-02-20T03:07:58.578Z,7.80
2023-02-20T03:10:35.843Z,10.10
2023-02-20T03:13:05.729Z,7.65
2023-02-20T03:15:42.222Z,7.53
2023-02-20T03:18:39.941Z,7.63
2023-02-20T03:21:14.828Z,4.47
2023-02-20T03:23:46.397Z,6.13
2023-02-20T03:26:19.446Z,5.75
2023-02-20T03:28:58.832Z,6.65
2023-02-20T03:31:34.758Z,6.43
2023-02-20T03:34:30.834Z,5.18
2023-02-20T03:37:34.941Z,4.90
2023-02-20T03:40:25.649Z,3.90
2023-02-20T03:43:19.388Z,7.47
2023-02-20T03:45:48.798Z,5.90
2023-02-20T03:48:26.182Z,6.57
2023-02-20T03:50:53.774Z,6.53
2023-02-20T03:53:25.778Z,4.22
2023-02-20T03:55:58.501Z,7.78
2023-02-20T03:58:29.787Z,8.50
2023-02-20T04:01:02.520Z,5.97
2023-02-20T04:03:35.197Z,4.45
2023-02-20T04:06:04.989Z,11.15
2023-02-20T04:08:36.430Z,6.45
2023-02-20T04:11:17.420Z,10.77
2023-02-20T04:13:47.642Z,5.28
2023-02-20T04:18:43.419Z,4.32
2023-02-20T04:21:26.692Z,5.00
2023-02-20T04:24:21.001Z,6.72
2023-02-20T04:26:48.836Z,6.72
2023-02-20T04:29:16.774Z,4.13
2023-02-20T04:31:43.825Z,6.75
2023-02-20T04:34:13.345Z,6.18
2023-02-20T04:36:42.030Z,7.13
2023-02-20T04:39:09.412Z,5.38
2023-02-20T04:41:37.475Z,5.53
2023-02-20T04:44:23.524Z,5.97
2023-02-20T04:46:51.949Z,8.32
2023-02-20T04:49:21.392Z,12.63
2023-02-20T04:51:52.445Z,8.82
2023-02-20T04:54:19.964Z,4.10
2023-02-20T04:56:47.210Z,6.40
2023-02-20T04:59:15.856Z,8.85
2023-02-20T05:01:47.968Z,14.75
2023-02-20T05:04:15.968Z,10.48
2023-02-20T05:06:47.259Z,6.25
2023-02-20T05:09:14.814Z,6.95
2023-02-20T05:11:42.119Z,5.85
2023-02-20T05:14:09.431Z,8.35
2023-02-20T05:16:50.141Z,4.82
2023-02-20T05:19:28.979Z,7.45
2023-02-20T05:22:26.190Z,7.03
2023-02-20T05:24:53.545Z,10.82
2023-02-20T05:27:22.424Z,5.78
2023-02-20T05:29:52.836Z,10.95
2023-02-20T05:32:21.919Z,12.07
2023-02-20T05:34:49.721Z,8.45
2023-02-20T05:37:18.963Z,8.30
2023-02-20T05:39:47.117Z,6.25
2023-02-20T05:42:15.572Z,15.68
2023-02-20T05:44:42.995Z,9.50
2023-02-20T05:47:10.637Z,10.30
2023-02-20T05:49:38.054Z,6.45
2023-02-20T05:52:11.833Z,12.18
2023-02-20T05:54:39.873Z,9.32
2023-02-20T05:57:07.315Z,9.80
2023-02-20T05:59:34.727Z,11.50
2023-02-20T06:02:02.025Z,13.07
2023-02-20T06:04:29.954Z,13.80
2023-02-20T06:06:57.195Z,11.73
2023-02-20T06:09:24.604Z,14.68
2023-02-20T06:11:55.149Z,10.80
2023-02-20T06:14:25.140Z,12.35
2023-02-20T06:16:52.620Z,8.55
2023-02-20T06:19:22.722Z,12.40
2023-02-20T06:21:51.823Z,11.52
2023-02-20T06:24:20.506Z,16.77
2023-02-20T06:26:47.590Z,14.50
2023-02-20T06:29:16.237Z,8.93
2023-02-20T06:31:43.709Z,7.53
2023-02-20T06:34:11.836Z,15.45
2023-02-20T06:36:41.165Z,9.52
2023-02-20T06:39:10.777Z,7.13
2023-02-20T06:41:37.941Z,8.45
2023-02-20T06:44:05.754Z,8.63
2023-02-20T06:46:32.896Z,6.38
2023-02-20T06:49:00.530Z,5.95
2023-02-20T06:51:33.167Z,7.78
2023-02-20T06:54:02.991Z,6.32
2023-02-20T06:56:32.157Z,5.53
2023-02-20T06:59:00.333Z,6.82
2023-02-20T07:01:30.232Z,10.82
2023-02-20T07:06:28.056Z,8.77
2023-02-20T07:08:55.627Z,6.63
2023-02-20T07:11:24.634Z,4.68
2023-02-20T07:13:52.135Z,6.13
2023-02-20T07:16:19.458Z,6.57
2023-02-20T07:18:46.969Z,6.72
2023-02-20T07:21:14.271Z,4.38
2023-02-20T07:23:42.083Z,5.90
2023-02-20T07:26:21.140Z,4.68
2023-02-20T07:28:48.857Z,10.15
2023-02-20T07:31:16.407Z,11.02
2023-02-20T07:33:44.131Z,7.72
2023-02-20T07:36:13.197Z,20.08
2023-02-20T07:38:41.426Z,5.45
2023-02-20T07:41:09.497Z,17.88
2023-02-20T07:43:37.022Z,12.27
2023-02-20T07:46:04.474Z,20.77
2023-02-20T07:48:34.910Z,12.90
2023-02-20T07:51:02.046Z,16.52
2023-02-20T07:53:29.624Z,25.77
2023-02-20T07:55:56.839Z,13.45
2023-02-20T07:58:25.200Z,17.50
2023-02-20T08:00:54.052Z,9.98
2023-02-20T08:03:21.913Z,18.95
2023-02-20T08:05:50.180Z,12.05
2023-02-20T08:08:19.848Z,8.97
2023-02-20T08:10:47.931Z,4.78
2023-02-20T08:13:16.454Z,4.95
2023-02-20T08:15:48.255Z,5.22
2023-02-20T08:18:23.593Z,4.25
2023-02-20T08:20:52.140Z,4.78
2023-02-20T08:23:21.835Z,13.80
2023-02-20T08:25:49.040Z,12.88
2023-02-20T08:28:16.627Z,25.80
2023-02-20T08:30:44.169Z,14.95
2023-02-20T08:33:12.139Z,16.45
2023-02-20T08:35:39.541Z,17.45
2023-02-20T08:38:24.069Z,15.48
2023-02-20T08:40:52.287Z,10.35
2023-02-20T08:43:22.438Z,7.18
2023-02-20T08:45:50.937Z,11.10
2023-02-20T08:48:19.042Z,8.03
2023-02-20T08:50:47.090Z,7.82
2023-02-20T08:53:15.987Z,14.88
2023-02-20T08:55:44.139Z,23.83
2023-02-20T08:58:22.370Z,13.90
2023-02-20T09:00:50.751Z,20.27
2023-02-20T09:03:18.685Z,19.08
2023-02-20T09:05:46.638Z,17.30
2023-02-20T09:08:14.997Z,21.52
2023-02-20T09:10:42.755Z,11.32
2023-02-20T09:13:24.988Z,11.20
2023-02-20T09:15:56.701Z,11.90
2023-02-20T09:18:34.679Z,11.05
2023-02-20T09:21:16.287Z,12.20
2023-02-20T09:23:47.988Z,15.27
2023-02-20T09:26:52.870Z,5.97
2023-02-20T09:29:26.249Z,19.38
2023-02-20T09:31:57.446Z,15.52
2023-02-20T09:34:25.348Z,13.20
2023-02-20T09:36:55.668Z,16.45
2023-02-20T09:39:26.390Z,12.77
2023-02-20T09:42:18.258Z,13.07
2023-02-20T09:44:51.366Z,10.57
2023-02-20T09:47:42.622Z,22.95
2023-02-20T09:50:31.816Z,13.10
2023-02-20T09:53:06.058Z,11.00
2023-02-20T09:55:40.826Z,7.22
2023-02-20T09:58:23.595Z,11.35
2023-02-20T10:00:51.800Z,9.23
2023-02-20T10:03:35.113Z,11.88
2023-02-20T10:06:14.744Z,11.48
2023-02-20T10:08:43.975Z,8.93
2023-02-20T10:11:27.034Z,8.63
2023-02-20T10:14:24.783Z,12.10
2023-02-20T10:17:19.821Z,10.35
2023-02-20T10:19:56.392Z,14.30
2023-02-20T10:22:34.253Z,16.25
2023-02-20T10:25:11.693Z,25.88
2023-02-20T10:28:00.880Z,14.48
2023-02-20T10:30:40.975Z,12.32
2023-02-20T10:36:08.616Z,11.30
2023-02-20T10:38:41.656Z,12.68
2023-02-20T10:41:20.043Z,9.40
2023-02-20T10:43:56.133Z,13.23
2023-02-20T10:46:48.169Z,16.15
2023-02-20T10:49:32.996Z,13.80
2023-02-20T10:52:05.578Z,13.35
2023-02-20T10:54:43.731Z,13.50
2023-02-20T10:57:23.934Z,13.35
2023-02-20T10:59:56.196Z,24.75
2023-02-20T11:02:30.243Z,12.60
2023-02-20T11:05:15.863Z,13.48
2023-02-20T11:07:50.979Z,14.23
2023-02-20T11:10:43.901Z,12.90
2023-02-20T11:13:22.276Z,14.75
2023-02-20T11:15:56.596Z,13.75
2023-02-20T11:18:44.045Z,16.42
2023-02-20T11:21:35.792Z,11.13
2023-02-20T11:24:30.535Z,10.38
2023-02-20T11:27:04.846Z,11.18
2023-02-20T11:30:06.455Z,13.70
2023-02-20T11:33:32.985Z,8.63
2023-02-20T11:36:23.887Z,21.55
2023-02-20T11:39:10.162Z,10.00
2023-02-20T11:42:40.738Z,8.17
2023-02-20T11:46:59.059Z,10.45
2023-02-20T11:49:52.774Z,7.47
2023-02-20T11:53:12.973Z,11.75
2023-02-20T11:56:00.143Z,8.70
2023-02-20T11:58:29.939Z,8.48
2023-02-20T12:01:32.989Z,9.15
2023-02-20T12:04:34.051Z,9.73
2023-02-20T12:07:39.429Z,12.57
2023-02-20T12:11:15.482Z,9.77
2023-02-20T12:13:53.132Z,12.60
2023-02-20T12:20:49.895Z,19.45
2023-02-20T12:23:39.606Z,17.25
2023-02-20T12:26:33.016Z,14.70
2023-02-20T12:29:47.609Z,22.45
2023-02-20T12:33:18.948Z,52.22
2023-02-20T12:36:05.856Z,28.17
2023-02-20T12:39:22.938Z,22.20
2023-02-20T12:42:18.365Z,20.38
2023-02-20T12:45:36.420Z,17.98
2023-02-20T12:49:01.986Z,13.00
2023-02-20T12:51:57.922Z,13.93
2023-02-20T12:54:58.388Z,14.73
2023-02-20T12:57:34.491Z,12.80
2023-02-20T13:00:16.052Z,13.43
2023-02-20T13:02:48.944Z,14.23
2023-02-20T13:05:37.667Z,16.52
2023-02-20T13:08:33.470Z,17.33
2023-02-20T13:11:05.981Z,14.20
2023-02-20T13:14:24.893Z,12.93
2023-02-20T13:17:21.756Z,10.45
2023-02-20T13:20:10.701Z,8.88
2023-02-20T13:23:16.288Z,6.45
2023-02-20T13:25:45.168Z,7.70
2023-02-20T13:28:25.281Z,9.77
2023-02-20T13:31:11.678Z,8.38
2023-02-20T13:33:42.146Z,7.72
2023-02-20T13:36:30.172Z,4.95
2023-02-20T13:39:19.334Z,7.20
2023-02-20T13:41:56.401Z,5.32
2023-02-20T13:44:30.121Z,15.48
2023-02-20T13:47:02.897Z,12.85
2023-02-20T13:50:39.924Z,8.02
2023-02-20T13:53:08.730Z,8.25
2023-02-20T13:55:37.654Z,9.95
2023-02-20T13:58:13.941Z,7.97
2023-02-20T14:00:53.395Z,5.60
2023-02-20T14:03:26.249Z,5.68
2023-02-20T14:06:07.444Z,4.00
2023-02-20T14:08:36.920Z,4.88
2023-02-20T14:11:11.246Z,8.07
2023-02-20T14:13:47.157Z,3.90
2023-02-20T14:16:29.832Z,5.22
2023-02-20T14:19:25.515Z,7.18
2023-02-20T14:22:33.464Z,5.10
2023-02-20T14:25:07.427Z,4.18
2023-02-20T14:27:35.167Z,5.53
2023-02-20T14:30:25.304Z,5.40
2023-02-20T14:33:02.029Z,4.10
2023-02-20T14:36:00.119Z,3.80
2023-02-20T14:38:57.910Z,6.43
2023-02-20T14:41:26.283Z,3.30
2023-02-20T14:43:58.223Z,2.08
2023-02-20T14:46:28.951Z,2.72
2023-02-20T14:49:12.271Z,6.32
2023-02-20T14:51:40.562Z,4.93
2023-02-20T14:54:21.453Z,3.03
2023-02-20T14:56:50.901Z,2.65
2023-02-20T14:59:33.707Z,3.37
2023-02-20T15:02:14.708Z,4.10
2023-02-20T15:04:51.865Z,4.10
2023-02-20T15:07:26.361Z,4.07
2023-02-20T15:09:57.366Z,7.20
2023-02-20T15:12:28.643Z,3.72
2023-02-20T15:15:00.738Z,3.97
2023-02-20T15:17:38.502Z,4.05
2023-02-20T15:20:21.458Z,3.33
2023-02-20T15:22:49.322Z,1.45
2023-02-20T15:25:26.178Z,2.70
2023-02-20T15:28:23.849Z,2.15
2023-02-20T15:31:23.607Z,2.80
2023-02-20T15:33:54.846Z,3.58
2023-02-20T15:36:25.386Z,2.00
2023-02-20T15:38:55.812Z,1.55
2023-02-20T15:41:24.342Z,2.60
2023-02-20T15:43:52.646Z,3.13
2023-02-20T15:46:21.363Z,3.50
2023-02-20T15:48:49.238Z,3.90
2023-02-20T15:51:21.653Z,1.92
2023-02-20T15:53:53.089Z,2.92
2023-02-20T15:56:20.689Z,3.65
2023-02-20T15:58:50.339Z,2.80
2023-02-20T16:01:17.767Z,3.10
2023-02-20T16:03:54.689Z,4.30
2023-02-20T16:06:23.452Z,1.98
2023-02-20T16:08:53.236Z,3.28
2023-02-20T16:11:25.547Z,2.55
2023-02-20T16:14:03.498Z,3.17
2023-02-20T16:16:36.224Z,1.98
2023-02-20T16:19:11.984Z,7.03
2023-02-20T16:21:53.101Z,2.92
2023-02-20T16:24:26.931Z,3.38
2023-02-20T16:26:56.293Z,3.72
2023-02-20T16:29:36.759Z,4.30
2023-02-20T16:32:04.808Z,2.75
2023-02-20T16:34:34.073Z,2.60
2023-02-20T16:37:03.532Z,7.18
2023-02-20T16:39:31.847Z,3.17
2023-02-20T16:42:00.625Z,2.65
2023-02-20T16:44:43.925Z,5.95
2023-02-20T16:47:18.722Z,3.15
2023-02-20T16:49:49.025Z,4.95
2023-02-20T16:52:34.853Z,3.25
2023-02-20T16:55:14.996Z,5.30
2023-02-20T16:57:44.579Z,2.45
2023-02-20T17:00:18.723Z,2.22
2023-02-20T17:02:46.587Z,2.78
2023-02-20T17:05:15.409Z,2.63
2023-02-20T17:07:43.318Z,4.15
2023-02-20T17:10:14.657Z,2.30
2023-02-20T17:12:43.575Z,3.45
2023-02-20T17:15:17.208Z,4.40
2023-02-20T17:17:48.865Z,5.07
2023-02-20T17:20:21.389Z,2.73
2023-02-20T17:23:02.644Z,5.65
2023-02-20T17:25:40.213Z,4.38
2023-02-20T17:28:08.220Z,6.93
2023-02-20T17:30:36.474Z,6.25
2023-02-20T17:33:06.002Z,6.82
2023-02-20T17:35:39.569Z,8.52
2023-02-20T17:38:07.698Z,9.90
2023-02-20T17:40:38.387Z,11.82
2023-02-20T17:43:07.084Z,8.15
2023-02-20T17:45:35.972Z,7.70
2023-02-20T17:48:05.886Z,12.70
2023-02-20T17:50:34.260Z,11.38
2023-02-20T17:53:10.363Z,15.18
2023-02-20T17:55:38.669Z,9.38
2023-02-20T17:58:07.506Z,14.63
2023-02-20T18:00:56.189Z,15.70
2023-02-20T18:03:31.410Z,14.23
2023-02-20T18:06:27.012Z,18.15
2023-02-20T18:09:10.045Z,13.57
2023-02-20T18:12:03.316Z,13.60
2023-02-20T18:14:36.064Z,13.38
2023-02-20T18:17:04.168Z,14.03
2023-02-20T18:19:36.789Z,13.32
2023-02-20T18:22:07.498Z,13.40
2023-02-20T18:24:37.694Z,14.13
2023-02-20T18:27:20.250Z,18.48
2023-02-20T18:29:51.130Z,12.07
2023-02-20T18:32:20.536Z,17.55
2023-02-20T18:34:49.314Z,17.57
2023-02-20T18:37:25.175Z,14.45
2023-02-20T18:42:57.846Z,17.02
2023-02-20T18:45:27.227Z,15.55
2023-02-20T18:47:55.596Z,12.93
2023-02-20T18:50:24.293Z,14.23
2023-02-20T18:52:55.831Z,17.92
2023-02-20T18:55:24.612Z,18.40
2023-02-20T18:57:54.038Z,15.48
2023-02-20T19:00:27.104Z,13.93
2023-02-20T19:03:22.758Z,14.98
2023-02-20T19:06:06.703Z,16.10
2023-02-20T19:08:57.590Z,22.10
2023-02-20T19:11:28.909Z,14.80
2023-02-20T19:13:59.509Z,15.30
2023-02-20T19:16:27.957Z,13.95
2023-02-20T19:19:18.462Z,19.65
2023-02-20T19:21:51.195Z,17.42
2023-02-20T19:24:25.762Z,16.67
2023-02-20T19:26:55.509Z,21.25
2023-02-20T19:29:25.472Z,16.40
2023-02-20T19:31:55.008Z,14.77
2023-02-20T19:34:27.278Z,22.70
2023-02-20T19:37:03.260Z,17.80
2023-02-20T19:39:32.778Z,21.67
2023-02-20T19:42:00.702Z,26.53
2023-02-20T19:44:29.263Z,18.88
2023-02-20T19:46:57.156Z,18.38
2023-02-20T19:49:25.508Z,19.88
2023-02-20T19:51:55.455Z,19.95
2023-02-20T19:54:30.776Z,16.92
2023-02-20T19:57:02.083Z,23.08
2023-02-20T19:59:34.979Z,20.33
2023-02-20T20:02:04.622Z,24.33
2023-02-20T20:04:34.396Z,18.50
2023-02-20T20:07:03.158Z,23.37
2023-02-20T20:09:37.612Z,19.45
2023-02-20T20:12:27.375Z,18.17
2023-02-20T20:14:56.452Z,9.52
2023-02-20T20:17:24.456Z,20.48
2023-02-20T20:19:58.781Z,16.95
2023-02-20T20:22:30.768Z,21.13
2023-02-20T20:24:59.849Z,18.73
2023-02-20T20:27:27.530Z,17.55
2023-02-20T20:29:55.487Z,19.90
2023-02-20T20:32:24.062Z,16.20
2023-02-20T20:34:53.346Z,16.70
2023-02-20T20:37:23.908Z,19.20
2023-02-20T20:39:53.241Z,16.33
2023-02-20T20:42:25.451Z,17.77
2023-02-20T20:44:56.838Z,23.80
2023-02-20T20:47:40.479Z,14.55
2023-02-20T20:50:12.386Z,17.15
2023-02-20T20:52:43.836Z,19.02
2023-02-20T20:55:12.308Z,17.50
2023-02-20T20:57:41.444Z,17.38
2023-02-20T21:00:18.997Z,17.27
2023-02-20T21:02:46.451Z,17.58
2023-02-20T21:05:14.615Z,16.95
2023-02-20T21:07:42.384Z,20.90
2023-02-20T21:10:11.499Z,19.45
2023-02-20T21:12:40.338Z,20.98
2023-02-20T21:15:11.743Z,16.50
2023-02-20T21:17:41.429Z,19.42
2023-02-20T21:20:19.373Z,16.63
2023-02-20T21:22:47.611Z,18.45
2023-02-20T21:25:15.959Z,20.38
2023-02-20T21:27:43.648Z,16.88
2023-02-20T21:30:12.186Z,16.90
2023-02-20T21:32:40.574Z,18.10
2023-02-20T21:35:08.537Z,15.93
2023-02-20T21:37:36.125Z,19.70
2023-02-20T21:40:04.435Z,18.90
2023-02-20T21:42:50.465Z,19.75
2023-02-20T21:45:18.907Z,17.08
2023-02-20T21:47:46.429Z,16.33
2023-02-20T21:50:18.476Z,20.95
2023-02-20T21:52:46.943Z,17.90
2023-02-20T21:55:16.672Z,18.45
2023-02-20T21:57:44.567Z,13.73
2023-02-20T22:00:13.501Z,20.13
2023-02-20T22:02:41.378Z,15.57
2023-02-20T22:05:12.118Z,17.77
2023-02-20T22:07:58.044Z,18.63
2023-02-20T22:10:44.678Z,20.48
2023-02-20T22:13:32.317Z,20.38
2023-02-20T22:16:19.209Z,18.17
2023-02-20T22:19:05.408Z,13.50
2023-02-20T22:21:51.959Z,15.10
2023-02-20T22:24:39.229Z,17.45
2023-02-20T22:27:27.218Z,20.77
2023-02-20T22:30:13.876Z,17.05
2023-02-20T22:33:00.668Z,11.35
2023-02-20T22:35:46.738Z,15.52
2023-02-20T22:38:33.167Z,13.77
2023-02-20T22:41:19.291Z,23.08
2023-02-20T22:44:05.803Z,16.50
2023-02-20T22:46:51.887Z,17.23
2023-02-20T22:49:41.638Z,19.27
2023-02-20T22:52:27.587Z,19.30
2023-02-20T22:55:13.937Z,18.48
2023-02-20T22:58:00.265Z,16.05
2023-02-20T23:00:46.736Z,20.42
2023-02-20T23:03:32.846Z,17.40
2023-02-20T23:06:20.222Z,17.95
2023-02-20T23:09:07.876Z,22.70
2023-02-20T23:11:56.178Z,19.83
2023-02-20T23:14:43.313Z,14.05
2023-02-20T23:17:36.269Z,15.77
2023-02-20T23:20:26.058Z,24.27
2023-02-20T23:23:12.736Z,19.83
2023-02-20T23:25:58.687Z,16.90
2023-02-20T23:28:45.491Z,21.50
2023-02-20T23:31:31.790Z,20.60
2023-02-20T23:34:18.851Z,20.63
2023-02-20T23:37:10.853Z,17.58
2023-02-20T23:39:57.551Z,19.95
2023-02-20T23:42:43.530Z,22.33
2023-02-20T23:45:29.834Z,14.30
2023-02-20T23:48:15.551Z,14.10
2023-02-20T23:51:01.655Z,18.85
2023-02-20T23:53:47.555Z,15.68
2023-02-20T23:56:34.173Z,19.10
2023-02-20T23:59:19.880Z,10.38
